createdAt,value
2019-05-26T00:04:27.551Z,10.80
2019-05-26T00:09:27.292Z,10.80
2019-05-26T00:14:20.839Z,10.70
2019-05-26T00:19:23.356Z,10.60
2019-05-26T00:24:23.592Z,10.60
2019-05-26T00:29:18.127Z,10.50
2019-05-26T00:34:20.804Z,10.40
2019-05-26T00:39:14.385Z,10.50
2019-05-26T00:44:07.852Z,10.40
2019-05-26T00:49:11.760Z,10.50
2019-05-26T00:54:09.270Z,10.50
2019-05-26T00:59:03.227Z,10.50
2019-05-26T01:03:57.060Z,10.60
2019-05-26T01:08:56.567Z,10.60
2019-05-26T01:13:51.282Z,10.60
2019-05-26T01:18:46.711Z,10.60
2019-05-26T01:23:40.466Z,10.60
2019-05-26T01:28:36.977Z,10.60
2019-05-26T01:33:30.449Z,10.60
2019-05-26T01:38:29.814Z,10.50
2019-05-26T01:43:23.365Z,10.60
2019-05-26T01:48:32.941Z,10.60
2019-05-26T01:53:38.568Z,10.50
2019-05-26T01:58:32.119Z,10.50
2019-05-26T02:03:25.672Z,10.60
2019-05-26T02:08:39.227Z,10.60
2019-05-26T02:13:29.351Z,10.60
2019-05-26T02:18:28.792Z,10.60
2019-05-26T02:23:22.648Z,10.70
2019-05-26T02:28:18.484Z,10.70
2019-05-26T02:33:14.968Z,10.80
2019-05-26T02:38:08.462Z,10.90
2019-05-26T02:43:02.289Z,10.90
2019-05-26T02:47:55.882Z,10.90
2019-05-26T02:52:50.317Z,10.90
2019-05-26T02:57:46.541Z,10.90
2019-05-26T03:02:40.459Z,11.00
2019-05-26T03:07:43.884Z,11.00
2019-05-26T03:12:40.504Z,11.00
2019-05-26T03:17:37.402Z,11.10
2019-05-26T03:22:34.155Z,11.10
2019-05-26T03:27:28.076Z,11.10
2019-05-26T03:32:22.847Z,11.20
2019-05-26T03:37:22.848Z,11.20
2019-05-26T03:42:16.393Z,11.20
2019-05-26T03:47:16.983Z,11.20
2019-05-26T03:52:13.206Z,11.30
2019-05-26T03:57:06.765Z,11.30
2019-05-26T04:02:01.144Z,11.40
2019-05-26T04:07:06.637Z,11.50
2019-05-26T04:12:00.545Z,11.60
2019-05-26T04:17:03.230Z,11.70
2019-05-26T04:21:56.704Z,11.90
2019-05-26T04:27:01.807Z,11.90
2019-05-26T04:31:55.359Z,12.00
2019-05-26T04:36:48.921Z,12.10
2019-05-26T04:41:42.409Z,12.30
2019-05-26T04:46:37.920Z,12.40
2019-05-26T04:51:31.400Z,12.50
2019-05-26T04:56:31.996Z,12.70
2019-05-26T05:01:25.482Z,12.90
2019-05-26T05:06:19.041Z,12.90
2019-05-26T05:11:14.550Z,13.00
2019-05-26T05:16:09.981Z,13.20
2019-05-26T05:21:09.628Z,13.20
2019-05-26T05:26:16.288Z,13.30
2019-05-26T05:31:09.772Z,13.30
2019-05-26T05:36:03.589Z,15.40
2019-05-26T05:40:59.775Z,13.50
2019-05-26T05:45:52.345Z,13.50
2019-05-26T05:50:45.836Z,13.60
2019-05-26T05:55:41.385Z,13.70
2019-05-26T06:00:34.874Z,13.80
2019-05-26T06:05:28.699Z,13.80
2019-05-26T06:10:22.647Z,13.80
2019-05-26T06:15:17.711Z,13.90
2019-05-26T06:20:13.588Z,14.00
2019-05-26T06:25:07.855Z,14.10
2019-05-26T06:30:01.800Z,14.30
2019-05-26T06:34:56.277Z,14.40
2019-05-26T06:39:50.035Z,14.80
2019-05-26T06:44:53.379Z,14.90
2019-05-26T06:49:42.756Z,15.00
2019-05-26T06:54:36.492Z,15.10
2019-05-26T06:59:30.980Z,15.20
2019-05-26T07:04:28.406Z,15.20
2019-05-26T07:09:21.951Z,15.40
2019-05-26T07:14:15.445Z,15.40
2019-05-26T07:19:09.260Z,15.30
2019-05-26T07:24:02.739Z,15.30
2019-05-26T07:28:59.215Z,15.30
2019-05-26T07:33:57.151Z,15.40
2019-05-26T07:38:56.879Z,15.50
2019-05-26T07:43:50.360Z,15.80
2019-05-26T07:48:45.744Z,16.20
2019-05-26T07:53:40.356Z,16.30
2019-05-26T07:58:36.057Z,16.20
2019-05-26T08:03:29.549Z,16.30
2019-05-26T08:08:23.032Z,16.60
2019-05-26T08:13:16.510Z,16.70
2019-05-26T08:18:09.988Z,16.80
2019-05-26T08:23:04.435Z,17.00
2019-05-26T08:27:58.060Z,17.30
2019-05-26T08:32:53.803Z,17.50
2019-05-26T08:37:47.307Z,17.60
2019-05-26T08:42:44.595Z,17.90
2019-05-26T08:47:36.964Z,18.10
2019-05-26T08:52:30.487Z,18.50
2019-05-26T08:57:24.079Z,19.10
2019-05-26T09:02:17.565Z,19.00
2019-05-26T09:07:11.333Z,19.00
2019-05-26T09:12:04.972Z,19.10
2019-05-26T09:16:58.524Z,19.40
2019-05-26T09:21:52.976Z,19.90
2019-05-26T09:26:46.471Z,20.30
2019-05-26T09:31:39.951Z,20.20
2019-05-26T09:36:35.910Z,19.90
2019-05-26T09:41:29.752Z,20.10
2019-05-26T09:46:24.488Z,20.60
2019-05-26T09:51:18.295Z,20.40
2019-05-26T09:56:11.778Z,19.90
2019-05-26T10:01:05.328Z,19.90
2019-05-26T10:05:58.903Z,19.70
2019-05-26T10:10:52.456Z,20.00
2019-05-26T10:15:45.948Z,20.00
2019-05-26T10:20:39.504Z,19.70
2019-05-26T10:25:33.057Z,19.70
2019-05-26T10:30:27.074Z,19.90
2019-05-26T10:35:20.620Z,19.80
2019-05-26T10:40:15.848Z,19.90
2019-05-26T10:45:10.370Z,20.30
2019-05-26T10:50:06.919Z,20.10
2019-05-26T10:55:00.469Z,20.10
2019-05-26T10:59:54.071Z,20.20
2019-05-26T11:04:47.625Z,20.60
2019-05-26T11:09:41.177Z,20.50
2019-05-26T11:14:34.659Z,20.50
2019-05-26T11:19:28.580Z,20.50
2019-05-26T11:24:22.056Z,20.40
2019-05-26T11:29:16.061Z,20.50
2019-05-26T11:34:10.609Z,20.80
2019-05-26T11:39:07.560Z,21.10
2019-05-26T11:44:15.342Z,21.30
2019-05-26T11:48:57.419Z,21.30
2019-05-26T11:53:51.153Z,21.30
2019-05-26T11:58:44.725Z,21.50
2019-05-26T12:03:38.549Z,20.90
2019-05-26T12:08:32.324Z,20.50
2019-05-26T12:13:25.903Z,20.00
2019-05-26T12:18:19.449Z,19.40
2019-05-26T12:23:14.876Z,19.30
2019-05-26T12:28:09.493Z,19.60
2019-05-26T12:33:03.011Z,20.20
2019-05-26T12:37:56.564Z,20.60
2019-05-26T12:42:50.057Z,20.90
2019-05-26T12:47:43.609Z,21.70
2019-05-26T12:52:38.653Z,21.30
2019-05-26T12:57:32.183Z,21.10
2019-05-26T13:02:25.669Z,21.10
2019-05-26T13:07:19.241Z,21.00
2019-05-26T13:12:13.760Z,21.30
2019-05-26T13:17:07.320Z,21.20
2019-05-26T13:22:01.216Z,21.20
2019-05-26T13:26:54.754Z,21.20
2019-05-26T13:31:48.312Z,21.00
2019-05-26T13:36:41.793Z,21.00
2019-05-26T13:41:35.362Z,21.20
2019-05-26T13:46:28.922Z,21.10
2019-05-26T13:51:22.817Z,21.10
2019-05-26T13:56:16.377Z,20.90
2019-05-26T14:01:09.926Z,20.60
2019-05-26T14:06:03.626Z,20.60
2019-05-26T14:11:02.999Z,20.60
2019-05-26T14:15:59.579Z,20.70
2019-05-26T14:20:54.992Z,20.90
2019-05-26T14:25:48.480Z,21.10
2019-05-26T14:30:42.181Z,21.20
2019-05-26T14:35:35.719Z,21.00
2019-05-26T14:40:30.400Z,20.90
2019-05-26T14:45:24.324Z,20.70
2019-05-26T14:50:20.076Z,20.60
2019-05-26T14:55:14.396Z,20.60
2019-05-26T15:00:09.536Z,20.50
2019-05-26T15:05:03.353Z,19.80
2019-05-26T15:09:57.774Z,19.70
2019-05-26T15:14:52.224Z,19.50
2019-05-26T15:19:45.708Z,19.50
2019-05-26T15:24:39.418Z,19.20
2019-05-26T15:29:33.028Z,18.60
2019-05-26T15:34:26.574Z,18.30
2019-05-26T15:39:23.172Z,18.40
2019-05-26T15:44:16.652Z,18.70
2019-05-26T15:49:10.148Z,18.40
2019-05-26T15:54:03.636Z,18.20
2019-05-26T15:58:57.151Z,18.00
2019-05-26T16:03:50.860Z,17.50
2019-05-26T16:08:50.464Z,17.10
2019-05-26T16:13:46.051Z,17.00
2019-05-26T16:18:39.634Z,16.90
2019-05-26T16:23:33.190Z,17.10
2019-05-26T16:28:26.747Z,17.20
2019-05-26T16:33:20.498Z,17.30
2019-05-26T16:38:15.253Z,17.50
2019-05-26T16:43:08.884Z,17.60
2019-05-26T16:48:02.361Z,17.70
2019-05-26T16:52:55.939Z,17.80
2019-05-26T16:57:49.463Z,17.90
2019-05-26T17:02:43.749Z,18.00
2019-05-26T17:07:37.292Z,18.00
2019-05-26T17:12:30.783Z,18.00
2019-05-26T17:17:24.334Z,18.00
2019-05-26T17:22:17.905Z,18.10
2019-05-26T17:27:11.529Z,18.20
2019-05-26T17:32:05.325Z,18.30
2019-05-26T17:36:58.877Z,18.40
2019-05-26T17:41:52.469Z,18.40
2019-05-26T17:46:46.009Z,18.40
2019-05-26T17:51:39.489Z,18.50
2019-05-26T17:56:32.967Z,18.60
2019-05-26T18:01:26.556Z,18.60
2019-05-26T18:06:20.096Z,18.70
2019-05-26T18:11:13.595Z,18.70
2019-05-26T18:16:09.334Z,18.60
2019-05-26T18:21:06.606Z,18.70
2019-05-26T18:26:00.160Z,18.80
2019-05-26T18:30:53.979Z,18.80
2019-05-26T18:35:47.637Z,18.70
2019-05-26T18:40:41.627Z,18.50
2019-05-26T18:45:36.198Z,18.40
2019-05-26T18:50:35.940Z,18.30
2019-05-26T18:55:30.536Z,18.20
2019-05-26T19:00:31.085Z,18.10
2019-05-26T19:05:33.012Z,17.90
2019-05-26T19:10:17.077Z,17.80
2019-05-26T19:15:11.255Z,17.70
2019-05-26T19:20:15.564Z,17.60
2019-05-26T19:25:01.898Z,17.40
2019-05-26T19:29:55.445Z,17.40
2019-05-26T19:34:48.988Z,17.30
2019-05-26T19:39:42.475Z,17.20
2019-05-26T19:44:36.964Z,17.10
2019-05-26T19:49:30.708Z,17.00
2019-05-26T19:54:24.250Z,16.90
2019-05-26T19:59:17.737Z,16.90
2019-05-26T20:04:11.216Z,16.80
2019-05-26T20:09:07.204Z,16.70
2019-05-26T20:14:00.686Z,16.60
2019-05-26T20:18:54.237Z,16.40
2019-05-26T20:23:47.984Z,16.40
2019-05-26T20:28:42.688Z,16.10
2019-05-26T20:33:39.347Z,16.00
2019-05-26T20:38:33.116Z,15.80
2019-05-26T20:43:26.592Z,15.80
2019-05-26T20:48:20.327Z,15.70
2019-05-26T20:53:13.832Z,15.60
2019-05-26T20:58:07.331Z,15.50
2019-05-26T21:03:00.859Z,15.40
2019-05-26T21:07:54.328Z,15.40
2019-05-26T21:12:47.793Z,15.40
2019-05-26T21:17:41.290Z,15.30
2019-05-26T21:22:35.104Z,15.30
2019-05-26T21:27:29.499Z,15.20
2019-05-26T21:32:24.193Z,15.10
2019-05-26T21:37:17.762Z,15.10
2019-05-26T21:42:11.330Z,15.10
2019-05-26T21:47:11.476Z,15.00
2019-05-26T21:52:05.265Z,15.00
2019-05-26T21:56:58.816Z,14.90
2019-05-26T22:01:52.337Z,15.00
2019-05-26T22:06:45.876Z,15.00
2019-05-26T22:11:40.331Z,15.00
2019-05-26T22:16:34.852Z,14.90
2019-05-26T22:21:29.525Z,14.90
2019-05-26T22:26:23.057Z,14.90
2019-05-26T22:31:16.885Z,14.90
2019-05-26T22:36:10.364Z,14.80
2019-05-26T22:41:03.898Z,14.80
2019-05-26T22:45:57.432Z,14.90
2019-05-26T22:50:52.957Z,14.80
2019-05-26T22:55:46.503Z,14.80
2019-05-26T23:00:40.045Z,14.80
2019-05-26T23:05:33.808Z,14.80
2019-05-26T23:10:27.629Z,14.70
2019-05-26T23:15:22.224Z,14.70
2019-05-26T23:20:30.797Z,14.70
2019-05-26T23:25:24.341Z,14.60
2019-05-26T23:30:27.234Z,14.60
2019-05-26T23:35:25.440Z,14.60
2019-05-26T23:40:19.860Z,14.70
2019-05-26T23:45:14.577Z,14.70
2019-05-26T23:50:16.988Z,14.70
2019-05-26T23:55:11.110Z,14.70
